Time;durP1;ratioP1;P1;durP2;ratioP2;P2;SDS_P1;SDS_P2;PMS_P1;PMS_P2;Temp;Humidity;BMP_temperature;BMP_pressure;BME280_temperature;BME280_humidity;BME280_pressure;Samples;Min_cycle;Max_cycle;Signal;HPM_P1;HPM_P2
2023/06/17 00:01:05;;;;;;;10.57;8.80;;;13.40;99.90;;;;;;5032305;28;20984;-49
2023/06/17 00:03:32;;;;;;;10.10;9.10;;;13.50;99.90;;;;;;5028615;28;20956;-50
2023/06/17 00:05:58;;;;;;;10.63;9.10;;;13.40;99.90;;;;;;5032625;28;20887;-50
2023/06/17 00:08:25;;;;;;;9.93;9.00;;;13.40;99.90;;;;;;5029194;28;20502;-51
2023/06/17 00:10:51;;;;;;;9.70;8.80;;;13.40;99.90;;;;;;5026213;28;20537;-51
2023/06/17 00:13:19;;;;;;;17.90;9.97;;;13.40;99.90;;;;;;5030007;28;21066;-49
2023/06/17 00:15:50;;;;;;;9.60;8.73;;;13.40;99.90;;;;;;5029257;28;20491;-50
2023/06/17 00:18:19;;;;;;;10.80;9.67;;;13.40;99.90;;;;;;5032529;28;20826;-49
2023/06/17 00:20:46;;;;;;;9.27;8.50;;;13.40;99.90;;;;;;5026806;28;20483;-49
2023/06/17 00:23:12;;;;;;;12.33;8.90;;;13.40;99.90;;;;;;5030412;28;20466;-50
2023/06/17 00:25:39;;;;;;;13.93;9.30;;;13.40;99.90;;;;;;5031855;28;20511;-50
2023/06/17 00:28:05;;;;;;;10.90;9.17;;;13.40;99.90;;;;;;5028364;28;20490;-50
2023/06/17 00:30:32;;;;;;;9.87;8.87;;;13.40;99.90;;;;;;5028063;28;20487;-50
2023/06/17 00:33:00;;;;;;;9.37;8.40;;;13.40;99.90;;;;;;5032740;28;20486;-50
2023/06/17 00:35:26;;;;;;;10.17;9.17;;;13.40;99.90;;;;;;5026972;28;20524;-50
2023/06/17 00:37:53;;;;;;;9.87;8.87;;;13.40;99.90;;;;;;5031826;28;20486;-50
2023/06/17 00:40:19;;;;;;;10.90;9.80;;;13.30;99.90;;;;;;5031971;28;20483;-50
2023/06/17 00:42:46;;;;;;;9.50;8.63;;;13.40;99.90;;;;;;5025698;28;20563;-50
2023/06/17 00:45:12;;;;;;;13.87;9.37;;;13.30;99.90;;;;;;5026599;28;20528;-50
2023/06/17 00:47:39;;;;;;;16.87;9.73;;;13.40;99.90;;;;;;5033020;28;20590;-50
2023/06/17 00:50:12;;;;;;;13.57;10.00;;;13.40;99.90;;;;;;5032758;28;20487;-50
2023/06/17 00:52:39;;;;;;;11.30;10.10;;;13.40;99.90;;;;;;5032409;28;20862;-50
2023/06/17 00:55:08;;;;;;;9.97;9.13;;;13.40;99.90;;;;;;5031261;28;21030;-50
2023/06/17 00:57:35;;;;;;;9.13;8.37;;;13.40;99.90;;;;;;5025090;28;20467;-50
2023/06/17 01:00:05;;;;;;;10.27;9.37;;;13.40;99.90;;;;;;5032268;28;20498;-50
2023/06/17 01:02:32;;;;;;;15.70;10.20;;;13.40;99.90;;;;;;5024900;28;20969;-50
2023/06/17 01:05:01;;;;;;;10.63;9.53;;;13.30;99.90;;;;;;5030433;28;20570;-50
2023/06/17 01:07:40;;;;;;;11.10;10.10;;;13.40;99.90;;;;;;5024622;28;20462;-50
2023/06/17 01:10:13;;;;;;;10.57;9.60;;;13.40;99.90;;;;;;5013991;28;20498;-49
2023/06/17 01:12:41;;;;;;;12.63;9.70;;;13.40;99.90;;;;;;5030028;28;20487;-50
2023/06/17 01:15:13;;;;;;;10.10;9.10;;;13.40;99.90;;;;;;5031508;28;20486;-50
2023/06/17 01:17:44;;;;;;;12.80;9.67;;;13.40;99.90;;;;;;5031672;28;20451;-50
2023/06/17 01:20:13;;;;;;;9.83;9.03;;;13.40;99.90;;;;;;5030215;28;20835;-50
2023/06/17 01:22:41;;;;;;;10.97;9.97;;;13.40;99.90;;;;;;5025272;28;20482;-49
2023/06/17 01:25:13;;;;;;;13.17;10.33;;;13.40;99.90;;;;;;5031960;28;20467;-50
2023/06/17 01:27:41;;;;;;;11.67;10.57;;;13.40;99.90;;;;;;5021699;28;20489;-50
2023/06/17 01:30:09;;;;;;;11.90;10.80;;;13.40;99.90;;;;;;5030611;28;20459;-50
2023/06/17 01:32:35;;;;;;;11.00;9.97;;;13.40;99.90;;;;;;5024612;28;20463;-50
2023/06/17 01:35:07;;;;;;;10.87;9.90;;;13.40;99.90;;;;;;5031592;28;20517;-50
2023/06/17 01:37:39;;;;;;;11.63;10.43;;;13.40;99.90;;;;;;5028352;28;22292;-50
2023/06/17 01:40:08;;;;;;;10.23;9.37;;;13.40;99.90;;;;;;5030158;28;20914;-50
2023/06/17 01:42:39;;;;;;;17.37;10.33;;;13.40;99.90;;;;;;5028642;28;20480;-50
2023/06/17 01:47:41;;;;;;;11.80;10.70;;;13.40;99.90;;;;;;5010248;28;21017;-57
2023/06/17 01:50:08;;;;;;;11.07;9.63;;;13.40;99.90;;;;;;5007328;28;20539;-56
2023/06/17 01:52:35;;;;;;;12.73;11.20;;;13.40;99.90;;;;;;5008075;28;20914;-56
2023/06/17 01:55:02;;;;;;;11.77;10.77;;;13.40;99.90;;;;;;5008435;28;20460;-57
2023/06/17 01:57:29;;;;;;;15.20;10.50;;;13.40;99.90;;;;;;5010558;28;20484;-56
2023/06/17 01:59:57;;;;;;;11.07;10.00;;;13.40;99.90;;;;;;5008616;28;21089;-57
2023/06/17 02:02:24;;;;;;;12.33;11.23;;;13.40;99.90;;;;;;5000698;28;20500;-56
2023/06/17 02:04:50;;;;;;;11.77;10.60;;;13.40;99.90;;;;;;4998779;28;20495;-56
2023/06/17 02:07:17;;;;;;;14.37;11.33;;;13.40;99.90;;;;;;5008416;28;20564;-56
2023/06/17 02:09:44;;;;;;;11.53;10.40;;;13.40;99.90;;;;;;5004581;28;20487;-57
2023/06/17 02:12:11;;;;;;;11.03;10.13;;;13.40;99.90;;;;;;5003751;28;20472;-56
2023/06/17 02:14:38;;;;;;;11.10;10.20;;;13.40;99.90;;;;;;5004472;28;20471;-56
2023/06/17 02:17:08;;;;;;;11.63;10.43;;;13.40;99.90;;;;;;5005738;28;20523;-56
2023/06/17 02:19:35;;;;;;;12.77;10.23;;;13.40;99.90;;;;;;5009322;28;20487;-56
2023/06/17 02:22:02;;;;;;;12.87;11.70;;;13.40;99.90;;;;;;5002087;28;20460;-56
2023/06/17 02:24:28;;;;;;;11.50;10.50;;;13.40;99.90;;;;;;5007410;28;20539;-55
2023/06/17 02:26:56;;;;;;;11.67;10.63;;;13.30;99.90;;;;;;5000743;28;20473;-56
2023/06/17 02:29:22;;;;;;;13.50;12.10;;;13.40;99.90;;;;;;5006000;28;20526;-55
2023/06/17 02:31:49;;;;;;;17.13;11.40;;;13.40;99.90;;;;;;5005031;28;20841;-56
2023/06/17 02:34:17;;;;;;;14.80;11.23;;;13.40;99.90;;;;;;5002898;28;20488;-57
2023/06/17 02:36:44;;;;;;;14.93;11.80;;;13.30;99.90;;;;;;5007932;28;20590;-57
2023/06/17 02:39:11;;;;;;;12.27;10.97;;;13.40;99.90;;;;;;4999985;28;20462;-55
2023/06/17 02:41:38;;;;;;;12.70;11.60;;;13.30;99.90;;;;;;5000798;28;20525;-57
2023/06/17 02:44:05;;;;;;;13.73;12.43;;;13.40;99.90;;;;;;4993036;28;21023;-56
2023/06/17 02:46:31;;;;;;;13.53;12.13;;;13.40;99.90;;;;;;5010878;28;20523;-56
2023/06/17 02:48:58;;;;;;;12.43;11.33;;;13.40;99.90;;;;;;5002482;28;20546;-56
2023/06/17 02:51:27;;;;;;;14.23;11.73;;;13.40;99.90;;;;;;4996606;28;21489;-57
2023/06/17 02:53:54;;;;;;;11.57;10.67;;;13.40;99.90;;;;;;5008878;28;20946;-56
2023/06/17 02:56:21;;;;;;;13.40;11.47;;;13.40;99.90;;;;;;4998792;28;20567;-56
2023/06/17 02:58:47;;;;;;;14.37;11.87;;;13.40;99.90;;;;;;5002972;28;20993;-56
2023/06/17 03:01:14;;;;;;;13.53;12.23;;;13.40;99.90;;;;;;5002897;28;20575;-56
2023/06/17 03:03:41;;;;;;;13.40;12.10;;;13.40;99.90;;;;;;5003246;28;20955;-56
2023/06/17 03:06:09;;;;;;;13.27;11.93;;;13.40;99.90;;;;;;5001241;28;20650;-56
2023/06/17 03:08:39;;;;;;;14.30;13.10;;;13.40;99.90;;;;;;4998045;28;20965;-56
2023/06/17 03:11:05;;;;;;;12.70;11.67;;;13.50;99.90;;;;;;4994802;28;20515;-56
2023/06/17 03:13:32;;;;;;;15.60;13.03;;;13.50;99.90;;;;;;5001383;28;20488;-56
2023/06/17 03:16:01;;;;;;;12.53;11.40;;;13.50;99.90;;;;;;4998067;28;20508;-56
2023/06/17 03:18:28;;;;;;;13.60;12.37;;;13.50;99.90;;;;;;5003814;28;20465;-57
2023/06/17 03:20:55;;;;;;;13.07;11.90;;;13.50;99.90;;;;;;5009490;28;20483;-55
2023/06/17 03:23:21;;;;;;;14.40;11.70;;;13.50;99.90;;;;;;5004673;28;20546;-56
2023/06/17 03:25:51;;;;;;;12.70;11.60;;;13.60;99.90;;;;;;5007990;28;20515;-56
2023/06/17 03:28:17;;;;;;;11.90;10.90;;;13.50;99.90;;;;;;5007110;28;20476;-56
2023/06/17 03:30:44;;;;;;;13.97;12.60;;;13.50;99.90;;;;;;5011348;28;20459;-56
2023/06/17 03:33:13;;;;;;;13.20;11.90;;;13.50;99.90;;;;;;5009644;28;20958;-56
2023/06/17 03:35:40;;;;;;;13.37;12.00;;;13.50;99.90;;;;;;5012371;28;20844;-57
2023/06/17 03:38:06;;;;;;;14.60;13.07;;;13.50;99.90;;;;;;5012951;28;20558;-57
2023/06/17 03:40:33;;;;;;;13.90;12.60;;;13.50;99.90;;;;;;5010356;28;20515;-57
2023/06/17 03:43:00;;;;;;;15.30;13.10;;;13.60;99.90;;;;;;5007461;28;20499;-56
2023/06/17 03:45:28;;;;;;;22.23;14.17;;;13.60;99.90;;;;;;5002819;28;21023;-56
2023/06/17 03:47:54;;;;;;;18.60;12.90;;;13.60;99.90;;;;;;5010132;28;20829;-57
2023/06/17 03:50:21;;;;;;;14.33;13.13;;;13.60;99.90;;;;;;5006225;28;20521;-57
2023/06/17 03:52:47;;;;;;;14.33;12.83;;;13.70;99.90;;;;;;5007636;28;20487;-58
2023/06/17 03:55:14;;;;;;;14.10;12.93;;;13.70;99.90;;;;;;5012455;28;20488;-57
2023/06/17 03:57:41;;;;;;;14.87;13.10;;;13.70;99.90;;;;;;5011478;28;20460;-57
2023/06/17 04:00:11;;;;;;;15.03;13.73;;;13.70;99.90;;;;;;5014509;28;20486;-57
2023/06/17 04:02:37;;;;;;;14.97;13.57;;;13.70;99.90;;;;;;5009761;28;20530;-57
2023/06/17 04:05:05;;;;;;;15.50;13.93;;;13.70;99.90;;;;;;5010106;28;20825;-57
2023/06/17 04:07:32;;;;;;;15.40;13.47;;;13.70;99.90;;;;;;5004307;28;20829;-56
2023/06/17 04:09:59;;;;;;;19.00;13.77;;;13.80;99.90;;;;;;5004770;28;20457;-56
2023/06/17 04:12:25;;;;;;;17.37;13.53;;;13.80;99.90;;;;;;5006083;28;20508;-56
2023/06/17 04:14:52;;;;;;;16.93;14.70;;;13.80;99.90;;;;;;5010962;28;20495;-56
2023/06/17 04:17:20;;;;;;;24.33;17.10;;;13.80;99.90;;;;;;5008318;28;20515;-56
2023/06/17 04:19:47;;;;;;;16.47;14.77;;;13.80;99.90;;;;;;5009200;28;20522;-57
2023/06/17 04:22:14;;;;;;;18.47;16.67;;;13.80;99.90;;;;;;5009173;28;20571;-60
2023/06/17 04:24:40;;;;;;;17.10;15.50;;;13.90;99.90;;;;;;5003874;28;20953;-56
2023/06/17 04:27:08;;;;;;;27.03;17.67;;;13.90;99.90;;;;;;5002128;28;20564;-56
2023/06/17 04:29:36;;;;;;;18.10;16.30;;;13.90;99.90;;;;;;5006981;28;20464;-55
2023/06/17 04:32:03;;;;;;;19.13;17.07;;;13.90;99.90;;;;;;5002710;28;20455;-56
2023/06/17 04:34:31;;;;;;;25.70;18.13;;;14.00;99.90;;;;;;5008303;28;20965;-56
2023/06/17 04:36:58;;;;;;;19.67;17.40;;;14.00;99.90;;;;;;5002051;28;20939;-56
2023/06/17 04:39:26;;;;;;;20.17;18.03;;;14.00;99.90;;;;;;5004462;28;20468;-55
2023/06/17 04:41:53;;;;;;;19.60;17.70;;;14.00;99.90;;;;;;5002711;28;21012;-56
2023/06/17 04:44:20;;;;;;;20.47;18.30;;;14.10;99.90;;;;;;5005598;28;20837;-56
2023/06/17 04:46:48;;;;;;;20.93;18.73;;;14.10;99.90;;;;;;5002275;28;20582;-57
2023/06/17 04:49:14;;;;;;;21.63;18.40;;;14.10;99.90;;;;;;5002290;28;20493;-56
2023/06/17 04:51:42;;;;;;;21.23;19.07;;;14.10;99.90;;;;;;4997867;28;20840;-56
2023/06/17 04:54:09;;;;;;;21.30;19.30;;;14.20;99.90;;;;;;5007454;28;20499;-56
2023/06/17 04:56:36;;;;;;;19.80;17.70;;;14.20;99.90;;;;;;5002012;28;20562;-56
2023/06/17 04:59:03;;;;;;;19.27;17.30;;;14.20;99.90;;;;;;5001197;28;20551;-56
2023/06/17 05:01:29;;;;;;;21.60;17.63;;;14.30;99.90;;;;;;5008552;28;20512;-56
2023/06/17 05:03:56;;;;;;;19.30;17.40;;;14.30;99.90;;;;;;5005078;28;20499;-56
2023/06/17 05:06:23;;;;;;;20.73;18.73;;;14.40;99.90;;;;;;5008104;28;20480;-56
2023/06/17 05:08:51;;;;;;;21.67;19.20;;;14.40;99.90;;;;;;5004035;28;20935;-56
2023/06/17 05:11:18;;;;;;;21.63;19.47;;;14.40;99.90;;;;;;5009163;28;20904;-55
2023/06/17 05:13:44;;;;;;;21.37;19.03;;;14.50;99.90;;;;;;5004957;28;20500;-55
2023/06/17 05:16:11;;;;;;;19.57;17.73;;;14.50;99.90;;;;;;5007540;28;20489;-56
2023/06/17 05:18:37;;;;;;;26.83;18.83;;;14.60;99.90;;;;;;5008111;28;20491;-55
2023/06/17 05:21:04;;;;;;;19.27;17.20;;;14.60;99.90;;;;;;5004175;28;20515;-56
2023/06/17 05:23:31;;;;;;;21.90;19.60;;;14.80;99.90;;;;;;5005676;28;20886;-55
2023/06/17 05:25:59;;;;;;;19.70;17.70;;;14.80;99.90;;;;;;5002567;28;20584;-56
2023/06/17 05:28:25;;;;;;;19.23;17.27;;;14.80;99.90;;;;;;5006184;28;20460;-55
2023/06/17 05:30:52;;;;;;;18.80;17.17;;;14.80;99.90;;;;;;5001666;28;21021;-56
2023/06/17 05:33:18;;;;;;;19.70;17.10;;;15.00;99.90;;;;;;5007488;28;20495;-52
2023/06/17 05:35:45;;;;;;;18.10;16.30;;;15.00;99.90;;;;;;5000559;28;20507;-51
2023/06/17 05:38:11;;;;;;;17.30;15.60;;;15.00;99.90;;;;;;5002813;28;20459;-52
2023/06/17 05:40:38;;;;;;;18.13;16.43;;;15.00;99.90;;;;;;5001814;28;20515;-56
2023/06/17 05:43:06;;;;;;;18.83;17.13;;;15.10;99.90;;;;;;5009304;28;20491;-50
2023/06/17 05:45:32;;;;;;;21.83;15.60;;;15.10;99.90;;;;;;4993451;28;20541;-52
2023/06/17 05:47:59;;;;;;;17.57;15.70;;;15.10;99.90;;;;;;5011516;28;20908;-52
2023/06/17 05:50:25;;;;;;;16.50;15.03;;;15.10;99.90;;;;;;5007740;28;20943;-53
2023/06/17 05:52:52;;;;;;;17.53;15.73;;;15.10;99.90;;;;;;5002923;28;20476;-52
2023/06/17 05:55:18;;;;;;;17.97;16.00;;;15.10;99.90;;;;;;5003441;28;20552;-52
2023/06/17 05:57:45;;;;;;;17.60;15.80;;;15.10;99.90;;;;;;5013810;28;20463;-51
2023/06/17 06:00:14;;;;;;;16.63;15.10;;;15.00;99.90;;;;;;5008502;28;20967;-52
2023/06/17 06:02:41;;;;;;;25.10;16.73;;;15.00;99.90;;;;;;5003234;28;20452;-51
2023/06/17 06:05:08;;;;;;;21.03;16.40;;;15.00;99.90;;;;;;5009235;28;20464;-53
2023/06/17 06:07:34;;;;;;;17.43;15.73;;;15.10;99.90;;;;;;5002896;28;20526;-51
2023/06/17 06:10:03;;;;;;;20.33;16.33;;;15.20;99.90;;;;;;5005040;28;20969;-53
2023/06/17 06:12:29;;;;;;;18.27;16.47;;;15.20;99.90;;;;;;5008256;28;20459;-51
2023/06/17 06:14:57;;;;;;;18.67;16.80;;;15.20;99.80;;;;;;5001855;28;20468;-52
2023/06/17 06:17:25;;;;;;;18.90;16.90;;;15.10;98.80;;;;;;5008198;28;20484;-51
2023/06/17 06:19:52;;;;;;;19.23;17.20;;;15.20;98.90;;;;;;5004433;28;20488;-53
2023/06/17 06:22:19;;;;;;;18.13;16.23;;;15.30;97.80;;;;;;5006995;28;20569;-52
2023/06/17 06:24:46;;;;;;;18.70;16.33;;;15.30;96.80;;;;;;4996527;28;20468;-52
2023/06/17 06:27:12;;;;;;;16.53;14.20;;;15.30;96.40;;;;;;5007067;28;20518;-53
2023/06/17 06:29:39;;;;;;;18.30;16.60;;;15.30;96.60;;;;;;5007112;28;20491;-52
2023/06/17 06:32:07;;;;;;;17.37;15.57;;;15.30;96.30;;;;;;5004311;28;20445;-51
2023/06/17 06:34:34;;;;;;;19.03;15.57;;;15.40;95.20;;;;;;5005857;28;20496;-51
2023/06/17 06:37:01;;;;;;;16.30;14.80;;;15.40;95.70;;;;;;5005223;28;20535;-51
2023/06/17 06:39:28;;;;;;;16.67;15.17;;;15.50;94.60;;;;;;5006240;28;20460;-53
2023/06/17 06:41:54;;;;;;;20.93;15.00;;;15.60;93.60;;;;;;4999216;28;21045;-51
2023/06/17 06:44:21;;;;;;;18.67;16.83;;;15.60;93.60;;;;;;5007729;28;20568;-52
2023/06/17 06:46:47;;;;;;;16.33;14.73;;;15.60;94.30;;;;;;5007285;28;20519;-52
2023/06/17 06:49:14;;;;;;;15.23;13.83;;;15.60;94.50;;;;;;5008474;28;20525;-52
2023/06/17 06:51:42;;;;;;;17.40;15.23;;;15.60;95.20;;;;;;4999175;28;20460;-52
2023/06/17 06:54:08;;;;;;;16.73;15.13;;;15.60;96.20;;;;;;5010665;28;20504;-51
2023/06/17 06:56:35;;;;;;;17.17;14.90;;;15.60;97.00;;;;;;5003110;28;20483;-52
2023/06/17 06:59:02;;;;;;;21.33;15.50;;;15.60;96.60;;;;;;5010575;28;20910;-52
2023/06/17 07:01:29;;;;;;;16.17;14.43;;;15.70;95.20;;;;;;5012374;28;20475;-52
2023/06/17 07:03:55;;;;;;;16.87;15.23;;;15.80;94.90;;;;;;5009530;28;20878;-52
2023/06/17 07:06:22;;;;;;;16.73;14.70;;;15.90;94.50;;;;;;5009770;28;20490;-51
2023/06/17 07:08:50;;;;;;;17.70;14.43;;;15.80;99.90;;;;;;5011183;28;20554;-52
2023/06/17 07:11:16;;;;;;;17.17;15.40;;;15.80;99.90;;;;;;5013045;28;20954;-51
2023/06/17 07:13:43;;;;;;;15.80;14.37;;;16.00;99.90;;;;;;5014485;28;20497;-51
2023/06/17 07:16:09;;;;;;;16.53;14.93;;;15.90;99.90;;;;;;5008508;28;20487;-51
2023/06/17 07:18:36;;;;;;;23.70;15.43;;;16.00;99.90;;;;;;5012577;28;20896;-52
2023/06/17 07:21:02;;;;;;;16.60;15.00;;;16.10;99.90;;;;;;5010020;28;20570;-51
2023/06/17 07:23:29;;;;;;;16.37;14.77;;;16.10;99.90;;;;;;5007531;28;20983;-51
2023/06/17 07:25:57;;;;;;;16.70;14.97;;;16.20;99.90;;;;;;5007089;28;20523;-52
2023/06/17 07:28:23;;;;;;;16.97;15.20;;;16.10;99.90;;;;;;5013109;28;20546;-51
2023/06/17 07:30:50;;;;;;;16.77;14.37;;;16.20;99.90;;;;;;5012736;28;20459;-51
2023/06/17 07:33:17;;;;;;;16.00;14.03;;;16.20;99.90;;;;;;5012587;28;20463;-51
2023/06/17 07:35:43;;;;;;;16.70;14.30;;;16.30;99.90;;;;;;5008427;28;21057;-52
2023/06/17 07:38:10;;;;;;;15.63;14.13;;;16.30;99.90;;;;;;5012324;28;21056;-51
2023/06/17 07:40:37;;;;;;;13.90;12.60;;;16.30;99.90;;;;;;5004007;28;20578;-51
2023/06/17 07:43:05;;;;;;;18.10;13.60;;;16.40;99.90;;;;;;5010858;28;20479;-56
2023/06/17 07:45:32;;;;;;;19.50;13.83;;;16.50;99.90;;;;;;5007520;28;20578;-51
2023/06/17 07:47:58;;;;;;;44.70;14.03;;;16.70;99.90;;;;;;5013184;28;20495;-51
2023/06/17 07:50:25;;;;;;;16.33;13.30;;;16.70;99.90;;;;;;5008439;28;21169;-51
2023/06/17 07:52:52;;;;;;;14.67;13.20;;;16.80;99.90;;;;;;5006729;28;20531;-51
2023/06/17 07:55:20;;;;;;;16.10;14.30;;;16.80;99.90;;;;;;5007649;28;21045;-53
2023/06/17 07:57:47;;;;;;;18.57;12.80;;;16.80;99.90;;;;;;5012376;28;20517;-56
2023/06/17 08:00:16;;;;;;;15.07;13.57;;;16.90;99.90;;;;;;5004680;28;20457;-57
2023/06/17 08:02:43;;;;;;;17.03;12.53;;;16.90;99.90;;;;;;5008500;28;21077;-57
2023/06/17 08:05:10;;;;;;;13.37;11.97;;;16.80;99.90;;;;;;5007929;28;20548;-56
2023/06/17 08:07:36;;;;;;;13.67;12.47;;;16.80;99.90;;;;;;5006488;28;20496;-56
2023/06/17 08:10:04;;;;;;;15.57;13.60;;;16.90;99.90;;;;;;5007796;28;20550;-57
2023/06/17 08:12:31;;;;;;;16.33;12.57;;;17.00;1.40;;;;;;5012459;28;20452;-55
2023/06/17 08:14:58;;;;;;;12.70;11.37;;;17.00;99.90;;;;;;4999636;28;20463;-56
2023/06/17 08:17:25;;;;;;;13.20;11.97;;;17.10;99.90;;;;;;5005156;28;20480;-55
2023/06/17 08:19:52;;;;;;;13.87;12.50;;;17.10;99.90;;;;;;5007773;28;20539;-56
2023/06/17 08:22:20;;;;;;;13.07;11.70;;;17.20;99.90;;;;;;5012145;28;20566;-56
2023/06/17 08:24:46;;;;;;;12.07;10.87;;;17.20;99.90;;;;;;4997106;28;20536;-55
2023/06/17 08:27:13;;;;;;;13.70;12.40;;;17.40;99.90;;;;;;5004790;28;20517;-56
2023/06/17 08:29:39;;;;;;;16.00;11.70;;;17.50;99.90;;;;;;4997821;28;20482;-57
2023/06/17 08:32:07;;;;;;;17.17;12.40;;;17.50;99.90;;;;;;5003422;28;20484;-56
2023/06/17 08:34:36;;;;;;;13.33;11.93;;;17.60;99.90;;;;;;5008400;28;20472;-56
2023/06/17 08:37:04;;;;;;;15.80;13.03;;;17.60;99.90;;;;;;5000493;28;20486;-57
2023/06/17 08:39:31;;;;;;;12.90;10.80;;;17.60;99.90;;;;;;5010332;28;21017;-57
2023/06/17 08:41:58;;;;;;;12.00;10.30;;;17.70;99.90;;;;;;5008687;28;20473;-57
2023/06/17 08:44:26;;;;;;;15.33;10.70;;;17.80;99.90;;;;;;5004236;28;21010;-57
2023/06/17 08:46:54;;;;;;;13.13;10.53;;;17.90;99.90;;;;;;5006114;28;21032;-57
2023/06/17 08:49:22;;;;;;;12.93;11.63;;;18.00;99.90;;;;;;5015570;28;20448;-57
2023/06/17 08:51:51;;;;;;;12.57;11.47;;;18.10;99.90;;;;;;5009624;28;20479;-56
2023/06/17 08:54:19;;;;;;;12.37;11.17;;;18.20;99.90;;;;;;5010843;28;20503;-57
2023/06/17 08:56:46;;;;;;;13.57;11.93;;;18.30;99.90;;;;;;5009703;28;20504;-57
2023/06/17 08:59:12;;;;;;;10.33;9.23;;;18.40;99.90;;;;;;5007897;28;20495;-58
2023/06/17 09:01:40;;;;;;;11.60;10.40;;;18.50;99.90;;;;;;5017758;28;20519;-57
2023/06/17 09:04:06;;;;;;;12.73;10.40;;;18.30;33.20;;;;;;5012682;28;20906;-58
2023/06/17 09:06:33;;;;;;;13.70;10.10;;;18.30;22.90;;;;;;5002224;28;20570;-56
2023/06/17 09:09:01;;;;;;;17.03;10.27;;;18.10;34.40;;;;;;5004503;28;20590;-56
2023/06/17 09:11:30;;;;;;;11.23;9.43;;;18.10;99.90;;;;;;5001240;28;20544;-56
2023/06/17 09:13:59;;;;;;;19.43;9.37;;;18.20;22.10;;;;;;5008356;28;20455;-57
2023/06/17 09:16:26;;;;;;;10.80;9.10;;;18.30;99.90;;;;;;5012679;28;20502;-58
2023/06/17 09:18:55;;;;;;;10.97;9.87;;;18.30;33.30;;;;;;5011130;28;20505;-58
2023/06/17 09:21:22;;;;;;;10.50;9.60;;;18.40;32.90;;;;;;5003561;28;20981;-56
2023/06/17 09:23:54;;;;;;;10.33;8.40;;;18.50;23.90;;;;;;5011524;28;20502;-58
2023/06/17 09:26:25;;;;;;;10.13;8.73;;;18.60;28.30;;;;;;5013168;28;20977;-57
2023/06/17 09:28:51;;;;;;;9.43;8.60;;;18.60;33.30;;;;;;5005612;28;20460;-58
2023/06/17 09:31:18;;;;;;;12.13;9.77;;;18.70;45.60;;;;;;5003814;28;20493;-57
2023/06/17 09:33:46;;;;;;;10.40;9.40;;;18.80;43.30;;;;;;5007737;28;20522;-57
2023/06/17 09:36:14;;;;;;;10.33;9.40;;;18.80;56.70;;;;;;4997726;28;21266;-56
2023/06/17 09:38:42;;;;;;;9.83;9.00;;;18.70;63.60;;;;;;5006505;28;20467;-57
2023/06/17 09:41:14;;;;;;;9.13;8.33;;;18.60;80.20;;;;;;5006150;28;20467;-57
2023/06/17 09:43:42;;;;;;;10.10;9.17;;;18.60;71.30;;;;;;5001941;28;20483;-56
2023/06/17 09:46:11;;;;;;;10.57;9.30;;;18.60;51.50;;;;;;4999830;28;20525;-57
2023/06/17 09:48:38;;;;;;;9.50;8.57;;;18.60;60.90;;;;;;4992064;28;20552;-57
2023/06/17 09:51:09;;;;;;;10.00;9.00;;;18.60;56.40;;;;;;5007602;28;20463;-57
2023/06/17 09:53:36;;;;;;;24.77;8.30;;;18.70;23.50;;;;;;5009324;28;20522;-58
2023/06/17 09:56:03;;;;;;;15.30;8.40;;;18.60;49.30;;;;;;5004593;28;21055;-57
2023/06/17 09:58:31;;;;;;;10.03;8.90;;;18.50;49.10;;;;;;5004870;28;20547;-58
2023/06/17 10:01:00;;;;;;;11.00;9.30;;;18.50;22.40;;;;;;5003809;28;21041;-57
2023/06/17 10:03:27;;;;;;;12.97;11.73;;;18.40;36.10;;;;;;5003321;28;20495;-57
2023/06/17 10:05:57;;;;;;;12.37;11.20;;;18.40;26.10;;;;;;5002550;28;20527;-56
2023/06/17 10:08:25;;;;;;;12.17;11.00;;;18.40;99.90;;;;;;4997506;28;20507;-56
2023/06/17 10:10:52;;;;;;;12.40;9.50;;;18.40;76.70;;;;;;4994185;28;20867;-57
2023/06/17 10:13:22;;;;;;;15.13;10.00;;;18.40;33.10;;;;;;4998706;28;21046;-57
2023/06/17 10:15:51;;;;;;;13.57;10.33;;;18.50;28.00;;;;;;5000099;28;20481;-55
2023/06/17 10:18:20;;;;;;;10.80;9.90;;;18.90;41.00;;;;;;5000151;28;20468;-56
2023/06/17 10:20:49;;;;;;;12.13;10.60;;;19.50;43.20;;;;;;5005582;28;20630;-56
2023/06/17 10:23:17;;;;;;;23.40;10.33;;;20.20;99.90;;;;;;4998223;28;20491;-57
2023/06/17 10:25:43;;;;;;;10.53;8.10;;;20.30;99.90;;;;;;4996648;28;21021;-56
2023/06/17 10:28:10;;;;;;;10.37;8.30;;;20.30;99.90;;;;;;5010153;28;20522;-56
2023/06/17 10:30:39;;;;;;;9.47;8.70;;;20.30;99.90;;;;;;5010633;28;20544;-56
2023/06/17 10:33:06;;;;;;;9.27;8.37;;;20.10;99.90;;;;;;5011097;28;20527;-56
2023/06/17 10:35:41;;;;;;;9.13;8.23;;;19.70;99.90;;;;;;5009374;28;20475;-56
2023/06/17 10:38:09;;;;;;;15.53;8.73;;;19.50;99.90;;;;;;5012868;28;20446;-56
2023/06/17 10:40:40;;;;;;;12.63;8.93;;;19.20;86.10;;;;;;5012467;28;20506;-56
2023/06/17 10:43:18;;;;;;;10.57;9.47;;;18.80;88.80;;;;;;5007478;28;20591;-56
2023/06/17 10:45:50;;;;;;;19.33;9.70;;;18.30;99.90;;;;;;5011552;28;20475;-56
2023/06/17 10:48:20;;;;;;;18.00;10.00;;;18.00;1.40;;;;;;4994637;28;20955;-56
2023/06/17 10:50:52;;;;;;;14.50;9.70;;;17.80;99.90;;;;;;5010182;28;20536;-56
2023/06/17 10:53:26;;;;;;;12.73;9.93;;;17.70;99.90;;;;;;5011953;28;20451;-56
2023/06/17 10:55:53;;;;;;;14.57;9.70;;;17.70;99.90;;;;;;5006761;28;20476;-55
2023/06/17 10:58:20;;;;;;;10.93;9.80;;;17.70;99.90;;;;;;4998072;28;20459;-56
2023/06/17 11:00:46;;;;;;;10.47;9.40;;;17.70;99.90;;;;;;4992266;28;20508;-55
2023/06/17 11:03:15;;;;;;;10.27;9.27;;;17.70;99.90;;;;;;5009642;28;21059;-55
2023/06/17 11:05:42;;;;;;;14.87;10.00;;;17.50;99.90;;;;;;5004712;28;20491;-55
2023/06/17 11:08:11;;;;;;;11.10;9.90;;;17.50;99.90;;;;;;5001849;28;20492;-55
2023/06/17 11:10:37;;;;;;;17.40;9.33;;;17.50;99.90;;;;;;5012102;28;20957;-54
2023/06/17 11:13:04;;;;;;;18.77;11.13;;;17.50;99.90;;;;;;5000819;28;20498;-55
2023/06/17 11:15:31;;;;;;;11.70;10.17;;;17.40;99.90;;;;;;5011871;28;20514;-56
2023/06/17 11:18:01;;;;;;;11.63;10.13;;;17.40;99.90;;;;;;4994005;28;21051;-52
2023/06/17 11:20:30;;;;;;;10.10;9.20;;;17.40;99.90;;;;;;4996633;28;20467;-53
2023/06/17 11:22:57;;;;;;;7.63;6.90;;;17.50;99.90;;;;;;5008763;28;20574;-53
2023/06/17 11:25:25;;;;;;;7.40;6.70;;;17.40;99.90;;;;;;5002067;28;21144;-53
2023/06/17 11:27:52;;;;;;;7.73;7.13;;;17.50;99.90;;;;;;5005994;28;20521;-52
2023/06/17 11:30:19;;;;;;;8.13;7.40;;;17.50;99.90;;;;;;5002502;28;20975;-52
2023/06/17 11:32:48;;;;;;;7.37;6.87;;;17.60;99.90;;;;;;5008980;28;20459;-54
2023/06/17 11:35:15;;;;;;;9.83;6.03;;;17.60;99.90;;;;;;5008978;28;20547;-52
2023/06/17 11:37:42;;;;;;;9.60;6.23;;;17.60;99.90;;;;;;5011258;28;20949;-53
2023/06/17 11:40:12;;;;;;;6.90;6.23;;;17.60;99.90;;;;;;5015218;28;20499;-52
2023/06/17 11:42:41;;;;;;;9.20;6.57;;;17.50;99.90;;;;;;5015357;28;20479;-54
2023/06/17 11:45:08;;;;;;;14.20;6.17;;;17.40;99.90;;;;;;5013275;28;20472;-52
2023/06/17 11:47:36;;;;;;;7.10;6.40;;;17.30;99.90;;;;;;5012565;28;20530;-52
2023/06/17 11:50:05;;;;;;;8.43;7.20;;;17.20;99.90;;;;;;5006292;28;20868;-53
2023/06/17 11:52:32;;;;;;;13.33;6.97;;;17.10;99.90;;;;;;5015470;28;20448;-53
2023/06/17 11:54:58;;;;;;;17.27;6.70;;;17.00;99.90;;;;;;5014923;28;20535;-53
2023/06/17 11:57:27;;;;;;;14.17;6.40;;;17.00;99.90;;;;;;5015219;28;20518;-52
2023/06/17 11:59:59;;;;;;;13.03;6.70;;;17.00;99.90;;;;;;5011277;28;20550;-54
2023/06/17 12:02:28;;;;;;;6.70;5.77;;;17.10;99.90;;;;;;5014901;28;20949;-53
2023/06/17 12:04:55;;;;;;;9.67;6.40;;;17.10;99.90;;;;;;5007306;28;20976;-53
2023/06/17 12:07:21;;;;;;;9.37;6.90;;;17.20;99.90;;;;;;5011226;28;20546;-54
2023/06/17 12:09:53;;;;;;;8.23;6.00;;;17.20;99.90;;;;;;5014877;28;20448;-53
2023/06/17 12:12:27;;;;;;;16.73;6.10;;;17.40;99.90;;;;;;5014948;28;20459;-53
2023/06/17 12:14:59;;;;;;;7.07;6.37;;;17.50;99.90;;;;;;5012774;28;20487;-53
2023/06/17 12:17:26;;;;;;;9.47;6.23;;;17.70;99.90;;;;;;5014541;28;20990;-53
2023/06/17 12:19:58;;;;;;;7.30;5.47;;;17.70;99.90;;;;;;5005468;28;20464;-52
2023/06/17 12:22:25;;;;;;;6.47;5.47;;;17.70;99.90;;;;;;5009391;28;20491;-53
2023/06/17 12:24:52;;;;;;;7.60;6.47;;;17.60;99.90;;;;;;5007191;28;20456;-54
2023/06/17 12:27:19;;;;;;;6.33;4.70;;;17.40;99.90;;;;;;5008518;28;20955;-53
2023/06/17 12:29:45;;;;;;;7.63;5.50;;;17.20;99.90;;;;;;5005574;28;20468;-53
2023/06/17 12:32:13;;;;;;;5.47;4.97;;;17.10;99.90;;;;;;5004225;28;20504;-53
2023/06/17 12:34:40;;;;;;;6.30;5.70;;;17.00;99.90;;;;;;5000072;28;20460;-53